createdAt,value
2023-03-27T00:01:21.261Z,3.41
2023-03-27T00:05:24.238Z,3.34
2023-03-27T00:09:28.422Z,3.21
2023-03-27T00:13:31.640Z,3.02
2023-03-27T00:17:33.809Z,2.90
2023-03-27T00:21:35.818Z,2.75
2023-03-27T00:25:37.896Z,2.56
2023-03-27T00:29:40.016Z,2.45
2023-03-27T00:33:42.725Z,2.33
2023-03-27T00:37:44.808Z,2.19
2023-03-27T00:41:47.396Z,2.07
2023-03-27T00:45:55.276Z,1.94
2023-03-27T00:49:59.726Z,1.85
2023-03-27T00:54:01.960Z,1.72
2023-03-27T00:58:09.786Z,1.62
2023-03-27T01:02:13.432Z,1.50
2023-03-27T01:06:17.302Z,1.40
2023-03-27T01:10:20.627Z,1.33
2023-03-27T01:14:45.923Z,1.20
2023-03-27T01:18:57.603Z,1.85
2023-03-27T01:23:36.094Z,1.44
2023-03-27T01:28:16.838Z,1.09
2023-03-27T01:32:42.215Z,0.91
2023-03-27T01:37:09.741Z,0.77
2023-03-27T01:41:14.594Z,0.66
2023-03-27T01:45:22.725Z,0.57
2023-03-27T01:49:31.366Z,0.49
2023-03-27T01:53:42.162Z,0.40
2023-03-27T01:58:00.532Z,0.33
2023-03-27T02:02:11.431Z,0.31
2023-03-27T02:06:16.161Z,0.25
2023-03-27T02:10:25.212Z,0.23
2023-03-27T02:14:32.309Z,0.19
2023-03-27T02:18:39.148Z,0.11
2023-03-27T02:22:43.771Z,0.03
2023-03-27T02:26:50.182Z,-0.02
2023-03-27T02:31:33.450Z,-0.09
2023-03-27T02:35:56.208Z,-0.15
2023-03-27T02:40:26.761Z,-0.18
2023-03-27T02:44:47.611Z,-0.23
2023-03-27T02:48:54.722Z,-0.24
2023-03-27T02:53:01.750Z,-0.27
2023-03-27T02:57:08.135Z,-0.31
2023-03-27T03:01:32.251Z,-0.33
2023-03-27T03:06:07.325Z,-0.36
2023-03-27T03:10:12.565Z,-0.39
2023-03-27T03:14:15.055Z,0.39
2023-03-27T03:18:17.124Z,0.11
2023-03-27T03:22:21.550Z,-0.14
2023-03-27T03:26:24.412Z,-0.28
2023-03-27T03:30:30.176Z,-0.38
2023-03-27T03:34:41.538Z,-0.45
2023-03-27T03:38:45.030Z,-0.52
2023-03-27T03:42:51.638Z,-0.56
2023-03-27T03:46:57.988Z,-0.58
2023-03-27T03:51:00.653Z,-0.63
2023-03-27T03:55:04.622Z,-0.64
2023-03-27T03:59:11.856Z,-0.68
2023-03-27T04:03:33.888Z,-0.73
2023-03-27T04:07:36.504Z,-0.77
2023-03-27T04:12:07.783Z,-0.82
2023-03-27T04:16:31.531Z,-0.86
2023-03-27T04:20:39.551Z,-0.87
2023-03-27T04:24:44.882Z,-0.88
2023-03-27T04:28:51.620Z,-0.91
2023-03-27T04:33:19.109Z,-0.94
2023-03-27T04:37:41.565Z,-0.98
2023-03-27T04:42:23.351Z,-1.04
2023-03-27T04:46:25.672Z,-1.06
2023-03-27T04:50:35.805Z,-1.06
2023-03-27T04:54:38.029Z,-1.07
2023-03-27T04:58:43.821Z,-1.05
2023-03-27T05:02:49.998Z,-1.04
2023-03-27T05:06:59.734Z,-1.05
2023-03-27T05:11:02.925Z,-1.04
2023-03-27T05:15:16.311Z,-1.01
2023-03-27T05:19:20.209Z,-0.98
2023-03-27T05:23:28.138Z,-0.94
2023-03-27T05:27:30.769Z,-0.91
2023-03-27T05:31:34.913Z,-0.88
2023-03-27T05:35:59.565Z,-0.85
2023-03-27T05:40:02.360Z,-0.80
2023-03-27T05:44:05.986Z,-0.71
2023-03-27T05:48:12.037Z,-0.57
2023-03-27T05:52:16.688Z,-0.45
2023-03-27T05:56:20.672Z,-0.42
2023-03-27T06:00:31.843Z,-0.38
2023-03-27T06:04:34.568Z,-0.29
2023-03-27T06:08:50.704Z,-0.24
2023-03-27T06:13:02.790Z,-0.14
2023-03-27T06:17:11.274Z,-0.03
2023-03-27T06:21:20.953Z,0.62
2023-03-27T06:25:25.688Z,0.95
2023-03-27T06:29:29.629Z,0.92
2023-03-27T06:33:32.041Z,0.86
2023-03-27T06:37:37.444Z,0.86
2023-03-27T06:41:40.151Z,1.77
2023-03-27T06:46:08.542Z,5.09
2023-03-27T06:50:30.520Z,5.86
2023-03-27T06:54:34.217Z,5.23
2023-03-27T06:58:37.353Z,4.14
2023-03-27T07:02:42.592Z,2.99
2023-03-27T07:07:03.373Z,2.29
2023-03-27T07:11:12.258Z,2.09
2023-03-27T07:15:25.010Z,1.85
2023-03-27T07:19:28.500Z,1.78
2023-03-27T07:23:42.198Z,1.73
2023-03-27T07:27:47.145Z,1.85
2023-03-27T07:31:56.524Z,1.94
2023-03-27T07:36:30.180Z,2.11
2023-03-27T07:40:40.506Z,2.11
2023-03-27T07:45:06.414Z,2.12
2023-03-27T07:49:09.392Z,2.16
2023-03-27T07:53:32.890Z,2.28
2023-03-27T07:57:59.762Z,2.42
2023-03-27T08:02:05.566Z,2.56
2023-03-27T08:06:11.753Z,2.62
2023-03-27T08:10:14.305Z,2.68
2023-03-27T08:14:28.241Z,2.73
2023-03-27T08:18:33.670Z,2.75
2023-03-27T08:22:39.475Z,2.66
2023-03-27T08:27:01.015Z,2.86
2023-03-27T08:31:11.186Z,3.30
2023-03-27T08:35:13.549Z,3.64
2023-03-27T08:39:15.947Z,3.87
2023-03-27T08:43:36.269Z,4.33
2023-03-27T08:47:50.450Z,4.50
2023-03-27T08:52:21.189Z,4.74
2023-03-27T08:56:27.112Z,4.67
2023-03-27T09:00:38.175Z,4.94
2023-03-27T09:05:06.396Z,5.35
2023-03-27T09:09:40.327Z,5.46
2023-03-27T09:13:51.093Z,5.93
2023-03-27T09:18:16.962Z,5.68
2023-03-27T09:22:27.614Z,5.50
2023-03-27T09:27:11.652Z,5.21
2023-03-27T09:31:26.494Z,5.12
2023-03-27T09:35:29.374Z,5.24
2023-03-27T09:39:34.117Z,5.03
2023-03-27T09:44:13.188Z,4.67
2023-03-27T09:48:35.857Z,4.51
2023-03-27T09:52:44.175Z,4.55
2023-03-27T09:57:10.882Z,4.61
2023-03-27T10:01:30.598Z,5.05
2023-03-27T10:05:39.211Z,5.72
2023-03-27T10:09:42.905Z,5.58
2023-03-27T10:13:48.697Z,5.77
2023-03-27T10:17:55.016Z,5.79
2023-03-27T10:22:01.933Z,5.37
2023-03-27T10:26:07.593Z,5.05
2023-03-27T10:30:33.518Z,5.00
2023-03-27T10:35:07.474Z,5.19
2023-03-27T10:39:32.830Z,5.59
2023-03-27T10:43:49.363Z,5.75
2023-03-27T10:47:59.259Z,5.53
2023-03-27T10:52:18.050Z,5.65
2023-03-27T10:56:59.378Z,5.79
2023-03-27T11:01:11.779Z,5.57
2023-03-27T11:05:43.243Z,5.05
2023-03-27T11:10:14.690Z,5.10
2023-03-27T11:14:26.126Z,5.15
2023-03-27T11:18:32.615Z,5.23
2023-03-27T11:22:43.328Z,5.03
2023-03-27T11:26:53.452Z,4.59
2023-03-27T11:31:12.770Z,4.51
2023-03-27T11:35:25.658Z,4.47
2023-03-27T11:40:02.921Z,4.38
2023-03-27T11:44:06.630Z,4.27
2023-03-27T11:49:06.959Z,4.39
2023-03-27T11:53:31.604Z,4.53
2023-03-27T11:57:58.608Z,4.76
2023-03-27T12:02:39.207Z,5.01
2023-03-27T12:06:51.512Z,5.11
2023-03-27T12:10:57.092Z,5.23
2023-03-27T12:15:22.833Z,5.28
2023-03-27T12:19:38.274Z,5.52
2023-03-27T12:24:21.407Z,5.81
2023-03-27T12:29:23.347Z,5.89
2023-03-27T12:34:04.150Z,5.99
2023-03-27T12:38:25.624Z,5.80
2023-03-27T12:42:48.248Z,5.83
2023-03-27T12:47:24.756Z,5.95
2023-03-27T12:51:51.306Z,6.08
2023-03-27T12:56:16.259Z,6.13
2023-03-27T13:00:22.551Z,5.97
2023-03-27T13:04:56.384Z,5.85
2023-03-27T13:09:21.755Z,5.54
2023-03-27T13:13:54.599Z,5.56
2023-03-27T13:18:28.153Z,5.48
2023-03-27T13:23:08.314Z,5.26
2023-03-27T13:27:32.022Z,4.67
2023-03-27T13:31:47.078Z,4.13
2023-03-27T13:36:17.407Z,3.71
2023-03-27T13:40:27.087Z,3.72
2023-03-27T13:44:47.288Z,4.03
2023-03-27T13:49:14.322Z,4.31
2023-03-27T13:53:48.100Z,4.59
2023-03-27T13:58:27.512Z,4.78
2023-03-27T14:02:44.096Z,5.07
2023-03-27T14:06:55.748Z,5.38
2023-03-27T14:11:30.533Z,5.84
2023-03-27T14:15:49.769Z,6.30
2023-03-27T14:20:30.090Z,6.14
2023-03-27T14:24:55.925Z,6.30
2023-03-27T14:29:11.279Z,6.31
2023-03-27T14:33:24.551Z,6.19
2023-03-27T14:37:35.965Z,5.92
2023-03-27T14:42:00.474Z,5.67
2023-03-27T14:46:07.514Z,5.46
2023-03-27T14:50:14.798Z,5.51
2023-03-27T14:54:31.354Z,5.34
2023-03-27T14:58:46.550Z,5.31
2023-03-27T15:02:53.085Z,5.29
2023-03-27T15:07:19.262Z,5.29
2023-03-27T15:11:38.318Z,5.34
2023-03-27T15:15:50.057Z,5.40
2023-03-27T15:19:56.068Z,5.43
2023-03-27T15:24:10.416Z,5.43
2023-03-27T15:28:27.838Z,5.44
2023-03-27T15:32:42.464Z,5.42
2023-03-27T15:36:46.633Z,5.48
2023-03-27T15:41:00.437Z,5.65
2023-03-27T15:45:03.337Z,5.63
2023-03-27T15:49:28.476Z,5.49
2023-03-27T15:53:41.214Z,5.38
2023-03-27T15:57:43.775Z,4.83
2023-03-27T16:01:53.682Z,4.56
2023-03-27T16:05:58.131Z,4.28
2023-03-27T16:10:05.058Z,4.03
2023-03-27T16:14:21.578Z,3.92
2023-03-27T16:18:30.036Z,3.86
2023-03-27T16:22:35.122Z,3.84
2023-03-27T16:26:37.158Z,3.80
2023-03-27T16:30:41.280Z,3.78
2023-03-27T16:34:44.256Z,3.71
2023-03-27T16:38:47.671Z,3.65
2023-03-27T16:42:49.693Z,3.63
2023-03-27T16:46:51.759Z,3.63
2023-03-27T16:50:53.724Z,3.60
2023-03-27T16:54:55.802Z,3.63
2023-03-27T16:58:59.572Z,3.46
2023-03-27T17:03:01.660Z,3.31
2023-03-27T17:07:04.835Z,3.21
2023-03-27T17:11:09.605Z,3.10
2023-03-27T17:15:11.785Z,3.01
2023-03-27T17:19:13.764Z,2.95
2023-03-27T17:23:15.866Z,2.89
2023-03-27T17:27:18.706Z,2.86
2023-03-27T17:31:21.083Z,2.77
2023-03-27T17:35:23.495Z,2.68
2023-03-27T17:39:26.917Z,2.53
2023-03-27T17:43:29.212Z,2.39
2023-03-27T17:47:31.528Z,2.34
2023-03-27T17:51:35.311Z,2.25
2023-03-27T17:55:37.898Z,2.13
2023-03-27T17:59:39.912Z,2.04
2023-03-27T18:03:42.164Z,1.96
2023-03-27T18:07:44.306Z,1.87
2023-03-27T18:11:47.033Z,1.98
2023-03-27T18:15:55.292Z,1.95
2023-03-27T18:19:57.498Z,1.79
2023-03-27T18:24:00.234Z,1.74
2023-03-27T18:28:02.228Z,1.70
2023-03-27T18:32:04.998Z,1.70
2023-03-27T18:36:10.639Z,1.75
2023-03-27T18:40:15.434Z,1.83
2023-03-27T18:44:18.177Z,1.81
2023-03-27T18:48:20.244Z,1.84
2023-03-27T18:52:22.216Z,1.86
2023-03-27T18:56:24.821Z,1.90
2023-03-27T19:00:26.916Z,1.91
2023-03-27T19:04:28.974Z,1.76
2023-03-27T19:08:32.197Z,1.63
2023-03-27T19:12:36.740Z,1.49
2023-03-27T19:16:57.907Z,1.36
2023-03-27T19:21:22.785Z,1.27
2023-03-27T19:25:37.556Z,1.18
2023-03-27T19:29:39.529Z,1.12
2023-03-27T19:33:41.598Z,1.10
2023-03-27T19:37:43.584Z,1.19
2023-03-27T19:41:45.617Z,1.31
2023-03-27T19:46:08.248Z,1.40
2023-03-27T19:50:17.028Z,1.53
2023-03-27T19:54:37.624Z,1.59
2023-03-27T19:58:39.775Z,1.67
2023-03-27T20:02:41.984Z,1.65
2023-03-27T20:06:46.865Z,1.76
2023-03-27T20:10:49.534Z,1.69
2023-03-27T20:15:02.893Z,1.56
2023-03-27T20:19:15.863Z,1.40
2023-03-27T20:23:17.884Z,1.29
2023-03-27T20:27:20.068Z,1.19
2023-03-27T20:31:22.762Z,1.08
2023-03-27T20:35:28.065Z,1.02
2023-03-27T20:39:32.063Z,0.93
2023-03-27T20:43:38.508Z,0.87
2023-03-27T20:47:42.938Z,0.84
2023-03-27T20:51:44.987Z,0.79
2023-03-27T20:56:02.856Z,0.74
2023-03-27T21:00:07.329Z,0.68
2023-03-27T21:04:14.301Z,0.63
2023-03-27T21:08:16.559Z,0.60
2023-03-27T21:12:18.664Z,0.56
2023-03-27T21:16:20.849Z,0.52
2023-03-27T21:20:22.854Z,0.49
2023-03-27T21:24:24.891Z,0.46
2023-03-27T21:28:26.991Z,0.40
2023-03-27T21:32:29.063Z,0.36
2023-03-27T21:36:31.193Z,0.33
2023-03-27T21:40:33.201Z,0.45
2023-03-27T21:44:35.742Z,0.50
2023-03-27T21:48:40.421Z,0.39
2023-03-27T21:52:42.437Z,0.32
2023-03-27T21:56:44.494Z,0.28
2023-03-27T22:00:47.496Z,0.23
2023-03-27T22:04:49.548Z,0.18
2023-03-27T22:08:51.570Z,0.17
2023-03-27T22:12:53.547Z,0.16
2023-03-27T22:16:55.570Z,0.14
2023-03-27T22:20:57.606Z,0.11
2023-03-27T22:24:59.591Z,0.07
2023-03-27T22:29:01.791Z,0.02
2023-03-27T22:33:03.904Z,0.02
2023-03-27T22:37:06.684Z,0.04
2023-03-27T22:41:10.634Z,0.05
2023-03-27T22:45:12.730Z,0.05
2023-03-27T22:49:14.979Z,0.01
2023-03-27T22:53:16.989Z,-0.01
2023-03-27T22:57:19.176Z,-0.01
2023-03-27T23:01:21.340Z,-0.02
2023-03-27T23:05:23.381Z,-0.06
2023-03-27T23:09:25.441Z,-0.07
2023-03-27T23:13:29.521Z,-0.09
2023-03-27T23:17:31.564Z,-0.09
2023-03-27T23:21:33.537Z,-0.11
2023-03-27T23:25:35.495Z,-0.11
2023-03-27T23:29:37.512Z,-0.13
2023-03-27T23:33:41.989Z,-0.16
2023-03-27T23:37:43.964Z,-0.21
2023-03-27T23:41:45.931Z,-0.24
2023-03-27T23:45:48.007Z,-0.26
2023-03-27T23:49:50.204Z,-0.28
2023-03-27T23:53:52.265Z,-0.31
2023-03-27T23:57:54.246Z,-0.31
